sensor_id;sensor_type;location;lat;lon;timestamp;pressure;altitude;pressure_sealevel;temperature;humidity
58534;BME280;44109;52.398;7.024;2022-09-09T00:01:26;100517.56;;;16.68;87.02
58534;BME280;44109;52.398;7.024;2022-09-09T00:04:01;100529.91;;;16.74;87.07
58534;BME280;44109;52.398;7.024;2022-09-09T00:06:36;100525.84;;;16.79;87.29
58534;BME280;44109;52.398;7.024;2022-09-09T00:09:13;100528.22;;;16.80;87.50
58534;BME280;44109;52.398;7.024;2022-09-09T00:11:48;100519.50;;;16.71;87.59
58534;BME280;44109;52.398;7.024;2022-09-09T00:14:23;100528.63;;;16.82;87.55
58534;BME280;44109;52.398;7.024;2022-09-09T00:17:03;100537.38;;;16.84;87.43
58534;BME280;44109;52.398;7.024;2022-09-09T00:19:40;100534.97;;;16.86;87.36
58534;BME280;44109;52.398;7.024;2022-09-09T00:22:18;100525.84;;;16.79;87.46
58534;BME280;44109;52.398;7.024;2022-09-09T00:24:49;100541.81;;;16.85;87.41
58534;BME280;44109;52.398;7.024;2022-09-09T00:27:25;100535.53;;;16.74;87.95
58534;BME280;44109;52.398;7.024;2022-09-09T00:30:02;100532.19;;;16.86;87.94
58534;BME280;44109;52.398;7.024;2022-09-09T00:32:41;100537.34;;;16.88;88.08
58534;BME280;44109;52.398;7.024;2022-09-09T00:35:17;100534.88;;;16.93;88.08
58534;BME280;44109;52.398;7.024;2022-09-09T00:37:52;100534.06;;;16.93;88.17
58534;BME280;44109;52.398;7.024;2022-09-09T00:40:32;100534.78;;;17.01;88.12
58534;BME280;44109;52.398;7.024;2022-09-09T00:43:24;100532.00;;;17.01;88.00
58534;BME280;44109;52.398;7.024;2022-09-09T00:46:15;100531.59;;;16.98;88.37
58534;BME280;44109;52.398;7.024;2022-09-09T00:49:02;100519.25;;;16.96;87.86
58534;BME280;44109;52.398;7.024;2022-09-09T00:51:43;100531.50;;;17.06;87.92
58534;BME280;44109;52.398;7.024;2022-09-09T00:54:29;100527.50;;;17.07;87.73
58534;BME280;44109;52.398;7.024;2022-09-09T00:57:23;100519.09;;;17.07;87.69
58534;BME280;44109;52.398;7.024;2022-09-09T01:00:17;100517.16;;;17.04;87.66
58534;BME280;44109;52.398;7.024;2022-09-09T01:02:53;100522.34;;;17.02;87.55
58534;BME280;44109;52.398;7.024;2022-09-09T01:05:40;100518.84;;;16.94;87.30
58534;BME280;44109;52.398;7.024;2022-09-09T01:08:36;100513.69;;;16.92;87.22
58534;BME280;44109;52.398;7.024;2022-09-09T01:11:20;100514.97;;;16.84;86.96
58534;BME280;44109;52.398;7.024;2022-09-09T01:13:56;100507.16;;;16.72;87.21
58534;BME280;44109;52.398;7.024;2022-09-09T01:16:31;100516.34;;;16.69;87.11
58534;BME280;44109;52.398;7.024;2022-09-09T01:19:00;100518.81;;;16.63;86.86
58534;BME280;44109;52.398;7.024;2022-09-09T01:21:37;100516.84;;;16.60;87.02
58534;BME280;44109;52.398;7.024;2022-09-09T01:24:22;100520.16;;;16.52;87.39
58534;BME280;44109;52.398;7.024;2022-09-09T01:26:58;100521.38;;;16.51;87.08
58534;BME280;44109;52.398;7.024;2022-09-09T01:29:28;100499.94;;;16.37;87.17
58534;BME280;44109;52.398;7.024;2022-09-09T01:31:58;100517.88;;;16.39;87.28
58534;BME280;44109;52.398;7.024;2022-09-09T01:34:30;100506.75;;;16.36;87.27
58534;BME280;44109;52.398;7.024;2022-09-09T01:37:02;100512.38;;;16.32;87.12
58534;BME280;44109;52.398;7.024;2022-09-09T01:39:35;100513.22;;;16.26;86.91
58534;BME280;44109;52.398;7.024;2022-09-09T01:42:08;100506.91;;;16.21;86.84
58534;BME280;44109;52.398;7.024;2022-09-09T01:44:37;100514.97;;;16.12;86.97
58534;BME280;44109;52.398;7.024;2022-09-09T01:47:06;100519.00;;;16.08;86.59
58534;BME280;44109;52.398;7.024;2022-09-09T01:49:33;100517.94;;;15.94;87.07
58534;BME280;44109;52.398;7.024;2022-09-09T01:52:02;100512.78;;;15.89;86.94
58534;BME280;44109;52.398;7.024;2022-09-09T01:54:31;100521.22;;;15.86;87.00
58534;BME280;44109;52.398;7.024;2022-09-09T01:57:08;100519.25;;;15.79;86.83
58534;BME280;44109;52.398;7.024;2022-09-09T01:59:50;100516.16;;;15.66;86.82
58534;BME280;44109;52.398;7.024;2022-09-09T02:02:32;100522.94;;;15.69;86.89
58534;BME280;44109;52.398;7.024;2022-09-09T02:05:12;100520.25;;;15.55;87.18
58534;BME280;44109;52.398;7.024;2022-09-09T02:07:47;100520.28;;;15.47;87.53
58534;BME280;44109;52.398;7.024;2022-09-09T02:10:20;100527.09;;;15.46;87.44
58534;BME280;44109;52.398;7.024;2022-09-09T02:12:56;100526.72;;;15.44;87.43
58534;BME280;44109;52.398;7.024;2022-09-09T02:15:34;100534.34;;;15.37;87.24
58534;BME280;44109;52.398;7.024;2022-09-09T02:18:10;100522.41;;;15.26;87.83
58534;BME280;44109;52.398;7.024;2022-09-09T02:20:43;100517.25;;;15.24;88.27
58534;BME280;44109;52.398;7.024;2022-09-09T02:23:14;100526.78;;;15.30;88.72
58534;BME280;44109;52.398;7.024;2022-09-09T02:25:44;100525.97;;;15.33;89.08
58534;BME280;44109;52.398;7.024;2022-09-09T02:28:16;100525.16;;;15.36;89.11
58534;BME280;44109;52.398;7.024;2022-09-09T02:30:50;100526.38;;;15.35;89.42
58534;BME280;44109;52.398;7.024;2022-09-09T02:33:22;100533.91;;;15.38;89.63
58534;BME280;44109;52.398;7.024;2022-09-09T02:35:55;100533.53;;;15.36;89.72
58534;BME280;44109;52.398;7.024;2022-09-09T02:38:32;100536.34;;;15.36;89.65
58534;BME280;44109;52.398;7.024;2022-09-09T02:41:04;100533.97;;;15.31;89.86
58534;BME280;44109;52.398;7.024;2022-09-09T02:43:34;100532.78;;;15.32;89.68
58534;BME280;44109;52.398;7.024;2022-09-09T02:46:08;100536.38;;;15.29;89.71
58534;BME280;44109;52.398;7.024;2022-09-09T02:48:59;100534.44;;;15.22;89.74
58534;BME280;44109;52.398;7.024;2022-09-09T02:51:36;100543.19;;;15.25;89.91
58534;BME280;44109;52.398;7.024;2022-09-09T02:54:17;100537.25;;;15.19;89.62
58534;BME280;44109;52.398;7.024;2022-09-09T02:56:52;100537.66;;;15.17;89.38
58534;BME280;44109;52.398;7.024;2022-09-09T02:59:22;100538.47;;;15.14;89.59
58534;BME280;44109;52.398;7.024;2022-09-09T03:01:52;100530.09;;;15.14;89.57
58534;BME280;44109;52.398;7.024;2022-09-09T03:04:20;100535.25;;;15.19;89.79
58534;BME280;44109;52.398;7.024;2022-09-09T03:06:47;100539.25;;;15.11;90.74
58534;BME280;44109;52.398;7.024;2022-09-09T03:09:15;100538.44;;;15.18;89.90
58534;BME280;44109;52.398;7.024;2022-09-09T03:11:43;100537.25;;;15.19;89.75
58534;BME280;44109;52.398;7.024;2022-09-09T03:14:10;100525.31;;;15.08;89.65
58534;BME280;44109;52.398;7.024;2022-09-09T03:16:39;100544.06;;;15.11;90.00
58534;BME280;44109;52.398;7.024;2022-09-09T03:19:09;100532.09;;;15.10;89.52
58534;BME280;44109;52.398;7.024;2022-09-09T03:21:36;100536.47;;;15.08;89.56
58534;BME280;44109;52.398;7.024;2022-09-09T03:24:04;100525.38;;;14.93;89.76
58534;BME280;44109;52.398;7.024;2022-09-09T03:26:32;100545.34;;;14.99;89.81
58534;BME280;44109;52.398;7.024;2022-09-09T03:29:00;100542.16;;;14.93;89.86
58534;BME280;44109;52.398;7.024;2022-09-09T03:31:28;100542.94;;;14.94;90.03
58534;BME280;44109;52.398;7.024;2022-09-09T03:33:57;100553.31;;;14.93;89.69
58534;BME280;44109;52.398;7.024;2022-09-09T03:36:25;100545.78;;;14.90;89.56
58534;BME280;44109;52.398;7.024;2022-09-09T03:38:54;100536.63;;;14.79;89.48
58534;BME280;44109;52.398;7.024;2022-09-09T03:41:22;100545.41;;;14.81;89.38
58534;BME280;44109;52.398;7.024;2022-09-09T03:43:50;100551.00;;;14.81;89.36
58534;BME280;44109;52.398;7.024;2022-09-09T03:46:19;100522.31;;;14.66;89.39
58534;BME280;44109;52.398;7.024;2022-09-09T03:48:47;100542.63;;;14.74;89.29
58534;BME280;44109;52.398;7.024;2022-09-09T03:51:16;100539.47;;;14.68;89.52
58534;BME280;44109;52.398;7.024;2022-09-09T03:53:44;100536.25;;;14.74;89.52
58534;BME280;44109;52.398;7.024;2022-09-09T03:56:12;100540.63;;;14.71;89.59
58534;BME280;44109;52.398;7.024;2022-09-09T03:58:40;100538.69;;;14.68;89.71
58534;BME280;44109;52.398;7.024;2022-09-09T04:01:10;100540.25;;;14.69;89.82
58534;BME280;44109;52.398;7.024;2022-09-09T04:03:40;100531.09;;;14.61;89.43
58534;BME280;44109;52.398;7.024;2022-09-09T04:06:09;100529.53;;;14.64;89.52
58534;BME280;44109;52.398;7.024;2022-09-09T04:08:40;100532.31;;;14.60;89.48
58534;BME280;44109;52.398;7.024;2022-09-09T04:11:08;100531.94;;;14.58;89.49
58534;BME280;44109;52.398;7.024;2022-09-09T04:13:37;100524.72;;;14.61;89.93
58534;BME280;44109;52.398;7.024;2022-09-09T04:16:06;100523.97;;;14.46;89.77
58534;BME280;44109;52.398;7.024;2022-09-09T04:18:36;100529.16;;;14.55;90.06
58534;BME280;44109;52.398;7.024;2022-09-09T04:21:04;100529.53;;;14.53;90.00
58534;BME280;44109;52.398;7.024;2022-09-09T04:23:33;100523.97;;;14.46;89.73
58534;BME280;44109;52.398;7.024;2022-09-09T04:26:04;100520.38;;;14.45;89.58
58534;BME280;44109;52.398;7.024;2022-09-09T04:28:34;100529.16;;;14.40;89.81
58534;BME280;44109;52.398;7.024;2022-09-09T04:31:06;100524.38;;;14.37;90.10
58534;BME280;44109;52.398;7.024;2022-09-09T04:33:35;100529.16;;;14.33;90.08
58534;BME280;44109;52.398;7.024;2022-09-09T04:36:04;100534.38;;;14.31;89.97
58534;BME280;44109;52.398;7.024;2022-09-09T04:38:32;100531.97;;;14.30;89.75
58534;BME280;44109;52.398;7.024;2022-09-09T04:41:00;100532.78;;;14.27;89.78
58534;BME280;44109;52.398;7.024;2022-09-09T04:43:28;100537.94;;;14.28;89.85
58534;BME280;44109;52.398;7.024;2022-09-09T04:45:57;100533.56;;;14.24;89.97
58534;BME280;44109;52.398;7.024;2022-09-09T04:48:25;100522.41;;;14.20;89.94
58534;BME280;44109;52.398;7.024;2022-09-09T04:50:55;100515.25;;;14.15;90.27
58534;BME280;44109;52.398;7.024;2022-09-09T04:53:23;100527.22;;;14.19;90.85
58534;BME280;44109;52.398;7.024;2022-09-09T04:55:51;100532.00;;;14.23;90.41
58534;BME280;44109;52.398;7.024;2022-09-09T04:58:19;100533.56;;;14.20;90.41
58534;BME280;44109;52.398;7.024;2022-09-09T05:00:49;100535.16;;;14.25;90.78
58534;BME280;44109;52.398;7.024;2022-09-09T05:03:17;100531.16;;;14.29;90.91
58534;BME280;44109;52.398;7.024;2022-09-09T05:05:45;100535.16;;;14.35;91.20
58534;BME280;44109;52.398;7.024;2022-09-09T05:08:13;100537.53;;;14.40;91.29
58534;BME280;44109;52.398;7.024;2022-09-09T05:10:40;100537.16;;;14.49;91.67
58534;BME280;44109;52.398;7.024;2022-09-09T05:13:08;100532.31;;;14.60;92.00
58534;BME280;44109;52.398;7.024;2022-09-09T05:15:37;100533.88;;;14.68;92.33
58534;BME280;44109;52.398;7.024;2022-09-09T05:18:06;100533.47;;;14.77;92.72
58534;BME280;44109;52.398;7.024;2022-09-09T05:20:34;100541.78;;;14.88;92.84
58534;BME280;44109;52.398;7.024;2022-09-09T05:23:02;100541.34;;;14.96;93.16
58534;BME280;44109;52.398;7.024;2022-09-09T05:25:29;100535.69;;;15.11;93.30
58534;BME280;44109;52.398;7.024;2022-09-09T05:27:58;100531.66;;;15.19;93.43
58534;BME280;44109;52.398;7.024;2022-09-09T05:30:26;100527.63;;;15.23;93.50
58534;BME280;44109;52.398;7.024;2022-09-09T05:32:55;100532.34;;;15.37;93.40
58534;BME280;44109;52.398;7.024;2022-09-09T05:35:24;100536.69;;;15.42;93.51
58534;BME280;44109;52.398;7.024;2022-09-09T05:37:52;100536.25;;;15.51;93.39
58534;BME280;44109;52.398;7.024;2022-09-09T05:40:19;100535.81;;;15.56;93.36
58534;BME280;44109;52.398;7.024;2022-09-09T05:42:47;100529.78;;;15.64;93.28
58534;BME280;44109;52.398;7.024;2022-09-09T05:45:15;100526.97;;;15.68;93.59
58534;BME280;44109;52.398;7.024;2022-09-09T05:47:42;100533.28;;;15.76;93.83
58534;BME280;44109;52.398;7.024;2022-09-09T05:50:10;100535.16;;;15.89;93.91
58534;BME280;44109;52.398;7.024;2022-09-09T05:52:40;100535.88;;;16.01;93.92
58534;BME280;44109;52.398;7.024;2022-09-09T05:55:08;100526.59;;;16.07;94.01
58534;BME280;44109;52.398;7.024;2022-09-09T05:57:35;100530.47;;;16.20;94.24
58534;BME280;44109;52.398;7.024;2022-09-09T06:00:04;100540.34;;;16.36;94.36
58534;BME280;44109;52.398;7.024;2022-09-09T06:02:32;100537.41;;;16.46;94.28
58534;BME280;44109;52.398;7.024;2022-09-09T06:04:59;100539.25;;;16.60;93.78
58534;BME280;44109;52.398;7.024;2022-09-09T06:07:27;100547.31;;;16.55;93.84
58534;BME280;44109;52.398;7.024;2022-09-09T06:09:56;100547.16;;;16.69;94.03
58534;BME280;44109;52.398;7.024;2022-09-09T06:12:26;100529.25;;;16.63;93.90
58534;BME280;44109;52.398;7.024;2022-09-09T06:14:53;100547.91;;;16.77;93.94
58534;BME280;44109;52.398;7.024;2022-09-09T06:17:21;100547.41;;;16.85;93.12
58534;BME280;44109;52.398;7.024;2022-09-09T06:19:48;100540.91;;;16.92;93.49
58534;BME280;44109;52.398;7.024;2022-09-09T06:22:17;100536.28;;;17.09;93.61
58534;BME280;44109;52.398;7.024;2022-09-09T06:24:44;100537.88;;;17.10;92.52
58534;BME280;44109;52.398;7.024;2022-09-09T06:27:13;100533.16;;;17.30;92.59
58534;BME280;44109;52.398;7.024;2022-09-09T06:29:41;100528.69;;;17.36;92.04
58534;BME280;44109;52.398;7.024;2022-09-09T06:32:08;100535.56;;;17.59;92.70
58534;BME280;44109;52.398;7.024;2022-09-09T06:34:36;100531.44;;;17.67;92.61
58534;BME280;44109;52.398;7.024;2022-09-09T06:37:03;100531.84;;;17.65;92.24
58534;BME280;44109;52.398;7.024;2022-09-09T06:39:32;100530.06;;;17.79;92.18
58534;BME280;44109;52.398;7.024;2022-09-09T06:41:59;100531.03;;;17.92;91.87
58534;BME280;44109;52.398;7.024;2022-09-09T06:44:28;100536.09;;;18.00;91.69
58534;BME280;44109;52.398;7.024;2022-09-09T06:46:59;100542.63;;;17.94;90.99
58534;BME280;44109;52.398;7.024;2022-09-09T06:49:27;100540.50;;;18.02;91.22
58534;BME280;44109;52.398;7.024;2022-09-09T06:51:54;100530.97;;;18.19;91.82
58534;BME280;44109;52.398;7.024;2022-09-09T06:54:22;100529.84;;;18.36;92.53
58534;BME280;44109;52.398;7.024;2022-09-09T06:56:49;100527.63;;;18.47;92.63
58534;BME280;44109;52.398;7.024;2022-09-09T06:59:17;100536.63;;;18.59;91.85
58534;BME280;44109;52.398;7.024;2022-09-09T07:01:46;100524.03;;;18.67;91.82
58534;BME280;44109;52.398;7.024;2022-09-09T07:04:13;100530.69;;;18.77;91.09
58534;BME280;44109;52.398;7.024;2022-09-09T07:06:42;100532.03;;;18.88;91.65
58534;BME280;44109;52.398;7.024;2022-09-09T07:09:13;100534.97;;;19.01;91.64
58534;BME280;44109;52.398;7.024;2022-09-09T07:11:44;100529.63;;;19.07;90.54
58534;BME280;44109;52.398;7.024;2022-09-09T07:14:13;100534.47;;;19.06;89.10
58534;BME280;44109;52.398;7.024;2022-09-09T07:16:42;100539.31;;;19.06;87.89
58534;BME280;44109;52.398;7.024;2022-09-09T07:19:12;100537.75;;;19.21;88.17
58534;BME280;44109;52.398;7.024;2022-09-09T07:21:40;100546.00;;;19.12;87.76
58534;BME280;44109;52.398;7.024;2022-09-09T07:24:08;100537.25;;;19.26;89.08
58534;BME280;44109;52.398;7.024;2022-09-09T07:26:38;100536.38;;;19.29;86.77
58534;BME280;44109;52.398;7.024;2022-09-09T07:29:07;100533.53;;;19.49;87.37
58534;BME280;44109;52.398;7.024;2022-09-09T07:31:36;100533.72;;;19.74;88.19
58534;BME280;44109;52.398;7.024;2022-09-09T07:34:06;100522.88;;;19.57;83.91
58534;BME280;44109;52.398;7.024;2022-09-09T07:36:37;100532.50;;;19.92;88.10
58534;BME280;44109;52.398;7.024;2022-09-09T07:39:08;100535.03;;;20.19;88.27
58534;BME280;44109;52.398;7.024;2022-09-09T07:41:39;100540.66;;;20.19;85.00
58534;BME280;44109;52.398;7.024;2022-09-09T07:44:10;100546.78;;;20.30;82.58
58534;BME280;44109;52.398;7.024;2022-09-09T07:46:39;100541.28;;;20.39;82.20
58534;BME280;44109;52.398;7.024;2022-09-09T07:49:08;100543.94;;;20.75;84.98
58534;BME280;44109;52.398;7.024;2022-09-09T07:51:39;100542.28;;;20.49;77.98
58534;BME280;44109;52.398;7.024;2022-09-09T07:54:09;100546.06;;;20.59;82.20
58534;BME280;44109;52.398;7.024;2022-09-09T07:56:39;100538.16;;;20.54;78.74
58534;BME280;44109;52.398;7.024;2022-09-09T07:59:08;100543.56;;;20.61;81.51
58534;BME280;44109;52.398;7.024;2022-09-09T08:01:38;100541.59;;;20.74;79.58
58534;BME280;44109;52.398;7.024;2022-09-09T08:04:09;100537.56;;;20.88;81.45
58534;BME280;44109;52.398;7.024;2022-09-09T08:06:45;100548.72;;;21.59;86.24
58534;BME280;44109;52.398;7.024;2022-09-09T08:09:14;100540.47;;;21.51;78.25
58534;BME280;44109;52.398;7.024;2022-09-09T08:11:42;100553.22;;;21.94;82.07
58534;BME280;44109;52.398;7.024;2022-09-09T08:14:11;100553.81;;;22.37;83.26
58534;BME280;44109;52.398;7.024;2022-09-09T08:16:41;100562.66;;;22.26;77.62
58534;BME280;44109;52.398;7.024;2022-09-09T08:19:10;100548.00;;;22.18;71.76
58534;BME280;44109;52.398;7.024;2022-09-09T08:21:39;100547.31;;;21.89;74.49
58534;BME280;44109;52.398;7.024;2022-09-09T08:24:10;100554.31;;;22.10;71.10
58534;BME280;44109;52.398;7.024;2022-09-09T08:26:41;100551.38;;;22.00;72.48
58534;BME280;44109;52.398;7.024;2022-09-09T08:29:11;100552.88;;;21.92;72.06
58534;BME280;44109;52.398;7.024;2022-09-09T08:31:42;100555.97;;;22.33;73.67
58534;BME280;44109;52.398;7.024;2022-09-09T08:34:11;100548.06;;;22.62;73.28
58534;BME280;44109;52.398;7.024;2022-09-09T08:36:41;100552.97;;;22.71;71.16
58534;BME280;44109;52.398;7.024;2022-09-09T08:39:13;100555.75;;;23.06;73.44
58534;BME280;44109;52.398;7.024;2022-09-09T08:42:00;100560.22;;;22.72;71.51
58534;BME280;44109;52.398;7.024;2022-09-09T08:45:02;100568.63;;;22.63;68.49
58534;BME280;44109;52.398;7.024;2022-09-09T08:48:03;100568.41;;;22.57;67.16
58534;BME280;44109;52.398;7.024;2022-09-09T08:50:45;100565.00;;;22.84;71.09
58534;BME280;44109;52.398;7.024;2022-09-09T08:53:20;100571.94;;;23.05;67.71
58534;BME280;44109;52.398;7.024;2022-09-09T08:55:54;100569.50;;;23.16;67.82
58534;BME280;44109;52.398;7.024;2022-09-09T08:58:26;100570.94;;;23.52;69.25
58534;BME280;44109;52.398;7.024;2022-09-09T09:01:19;100577.53;;;23.49;67.21
58534;BME280;44109;52.398;7.024;2022-09-09T09:04:01;100569.25;;;23.64;67.57
58534;BME280;44109;52.398;7.024;2022-09-09T09:06:47;100571.31;;;23.32;66.24
58534;BME280;44109;52.398;7.024;2022-09-09T09:09:26;100566.34;;;23.45;64.66
58534;BME280;44109;52.398;7.024;2022-09-09T09:12:14;100574.06;;;23.45;64.38
58534;BME280;44109;52.398;7.024;2022-09-09T09:14:46;100581.00;;;22.78;65.25
58534;BME280;44109;52.398;7.024;2022-09-09T09:17:17;100586.66;;;22.78;62.70
58534;BME280;44109;52.398;7.024;2022-09-09T09:19:48;100575.66;;;23.24;65.76
58534;BME280;44109;52.398;7.024;2022-09-09T09:22:18;100582.78;;;23.28;62.82
58534;BME280;44109;52.398;7.024;2022-09-09T09:24:52;100576.00;;;23.26;63.81
58534;BME280;44109;52.398;7.024;2022-09-09T09:27:30;100582.72;;;23.19;63.33
58534;BME280;44109;52.398;7.024;2022-09-09T09:30:01;100580.28;;;22.87;62.87
58534;BME280;44109;52.398;7.024;2022-09-09T09:32:33;100570.06;;;23.33;64.01
58534;BME280;44109;52.398;7.024;2022-09-09T09:35:09;100571.31;;;23.32;64.07
58534;BME280;44109;52.398;7.024;2022-09-09T09:37:40;100567.47;;;23.17;63.32
58534;BME280;44109;52.398;7.024;2022-09-09T09:40:10;100549.94;;;23.31;63.35
58534;BME280;44109;52.398;7.024;2022-09-09T09:42:49;100556.59;;;23.46;63.39
58534;BME280;44109;52.398;7.024;2022-09-09T09:45:27;100559.47;;;23.24;63.75
58534;BME280;44109;52.398;7.024;2022-09-09T09:48:00;100557.88;;;22.92;62.70
58534;BME280;44109;52.398;7.024;2022-09-09T09:50:31;100567.41;;;22.86;64.14
58534;BME280;44109;52.398;7.024;2022-09-09T09:53:02;100542.16;;;22.91;66.42
58534;BME280;44109;52.398;7.024;2022-09-09T09:55:34;100559.09;;;22.69;62.91
58534;BME280;44109;52.398;7.024;2022-09-09T09:58:06;100556.22;;;22.82;62.55
58534;BME280;44109;52.398;7.024;2022-09-09T10:00:34;100566.28;;;23.05;63.78
58534;BME280;44109;52.398;7.024;2022-09-09T10:03:14;100565.47;;;23.26;62.41
58534;BME280;44109;52.398;7.024;2022-09-09T10:05:49;100571.88;;;23.18;63.99
58534;BME280;44109;52.398;7.024;2022-09-09T10:08:17;100575.03;;;22.98;60.95
58534;BME280;44109;52.398;7.024;2022-09-09T10:10:54;100576.34;;;22.27;61.77
58534;BME280;44109;52.398;7.024;2022-09-09T10:13:39;100577.38;;;22.77;61.50
58534;BME280;44109;52.398;7.024;2022-09-09T10:16:28;100580.97;;;22.56;61.67
58534;BME280;44109;52.398;7.024;2022-09-09T10:19:09;100582.69;;;22.53;61.12
58534;BME280;44109;52.398;7.024;2022-09-09T10:21:59;100570.84;;;22.46;60.26
58534;BME280;44109;52.398;7.024;2022-09-09T10:24:53;100565.97;;;22.46;60.71
58534;BME280;44109;52.398;7.024;2022-09-09T10:27:37;100574.44;;;22.12;61.51
58534;BME280;44109;52.398;7.024;2022-09-09T10:30:18;100576.03;;;22.13;61.31
58534;BME280;44109;52.398;7.024;2022-09-09T10:32:49;100576.88;;;22.35;62.84
58534;BME280;44109;52.398;7.024;2022-09-09T10:35:29;100576.03;;;22.13;61.70
58534;BME280;44109;52.398;7.024;2022-09-09T10:38:14;100568.44;;;22.22;60.76
58534;BME280;44109;52.398;7.024;2022-09-09T10:41:00;100567.75;;;22.18;64.30
58534;BME280;44109;52.398;7.024;2022-09-09T10:43:47;100554.41;;;22.32;60.69
58534;BME280;44109;52.398;7.024;2022-09-09T10:46:46;100571.97;;;22.48;61.88
58534;BME280;44109;52.398;7.024;2022-09-09T10:49:38;100557.13;;;22.79;62.50
58534;BME280;44109;52.398;7.024;2022-09-09T10:52:25;100550.88;;;22.84;60.81
58534;BME280;44109;52.398;7.024;2022-09-09T10:55:02;100554.44;;;22.97;61.22
58534;BME280;44109;52.398;7.024;2022-09-09T10:57:41;100551.28;;;23.17;61.81
58534;BME280;44109;52.398;7.024;2022-09-09T11:00:17;100555.34;;;23.16;59.56
58534;BME280;44109;52.398;7.024;2022-09-09T11:02:52;100552.06;;;23.18;58.53
58534;BME280;44109;52.398;7.024;2022-09-09T11:05:28;100556.28;;;23.44;56.91
58534;BME280;44109;52.398;7.024;2022-09-09T11:08:03;100539.19;;;23.17;56.80
58534;BME280;44109;52.398;7.024;2022-09-09T11:10:38;100543.66;;;23.67;57.39
58534;BME280;44109;52.398;7.024;2022-09-09T11:13:14;100545.44;;;23.83;55.87
58534;BME280;44109;52.398;7.024;2022-09-09T11:15:50;100548.59;;;23.85;56.13
58534;BME280;44109;52.398;7.024;2022-09-09T11:18:23;100559.63;;;23.92;54.66
58534;BME280;44109;52.398;7.024;2022-09-09T11:20:56;100550.22;;;24.04;53.79
58534;BME280;44109;52.398;7.024;2022-09-09T11:23:34;100551.66;;;24.27;56.41
58534;BME280;44109;52.398;7.024;2022-09-09T11:26:13;100553.06;;;24.32;53.24
58534;BME280;44109;52.398;7.024;2022-09-09T11:28:54;100558.53;;;23.99;55.60
58534;BME280;44109;52.398;7.024;2022-09-09T11:31:44;100544.00;;;23.78;55.26
58534;BME280;44109;52.398;7.024;2022-09-09T11:34:27;100549.44;;;23.64;54.54
58534;BME280;44109;52.398;7.024;2022-09-09T11:37:21;100550.06;;;23.27;54.65
58534;BME280;44109;52.398;7.024;2022-09-09T11:40:18;100547.00;;;23.84;57.17
58534;BME280;44109;52.398;7.024;2022-09-09T11:43:01;100544.53;;;24.04;55.67
58534;BME280;44109;52.398;7.024;2022-09-09T11:45:34;100539.38;;;24.12;55.02
58534;BME280;44109;52.398;7.024;2022-09-09T11:48:04;100534.94;;;24.11;55.14
58534;BME280;44109;52.398;7.024;2022-09-09T11:50:36;100533.72;;;24.21;55.76
58534;BME280;44109;52.398;7.024;2022-09-09T11:56:05;100540.03;;;23.67;52.50
58534;BME280;44109;52.398;7.024;2022-09-09T11:58:41;100530.28;;;23.68;53.69
58534;BME280;44109;52.398;7.024;2022-09-09T12:01:27;100519.31;;;23.88;54.90
58534;BME280;44109;52.398;7.024;2022-09-09T12:07:00;100533.94;;;23.87;53.82
58534;BME280;44109;52.398;7.024;2022-09-09T12:09:44;100543.91;;;24.00;54.11
58534;BME280;44109;52.398;7.024;2022-09-09T12:12:25;100542.69;;;24.47;53.40
58534;BME280;44109;52.398;7.024;2022-09-09T12:14:57;100537.00;;;24.29;53.64
58534;BME280;44109;52.398;7.024;2022-09-09T12:17:31;100539.03;;;24.10;51.58
58534;BME280;44109;52.398;7.024;2022-09-09T12:20:13;100537.66;;;24.42;54.00
58534;BME280;44109;52.398;7.024;2022-09-09T12:22:54;100545.72;;;24.44;52.66
58534;BME280;44109;52.398;7.024;2022-09-09T12:25:53;100543.19;;;24.46;52.55
58534;BME280;44109;52.398;7.024;2022-09-09T12:28:37;100542.34;;;24.91;53.44
58534;BME280;44109;52.398;7.024;2022-09-09T12:31:15;100540.50;;;24.61;52.72
58534;BME280;44109;52.398;7.024;2022-09-09T12:33:50;100538.00;;;24.63;52.90
58534;BME280;44109;52.398;7.024;2022-09-09T12:36:20;100541.13;;;24.65;52.64
58534;BME280;44109;52.398;7.024;2022-09-09T12:38:52;100538.44;;;24.70;52.14
58534;BME280;44109;52.398;7.024;2022-09-09T12:41:22;100545.22;;;24.73;53.60
58534;BME280;44109;52.398;7.024;2022-09-09T12:44:03;100542.19;;;24.95;54.33
58534;BME280;44109;52.398;7.024;2022-09-09T12:46:38;100541.72;;;24.87;52.49
58534;BME280;44109;52.398;7.024;2022-09-09T12:49:26;100552.00;;;24.39;52.82
58534;BME280;44109;52.398;7.024;2022-09-09T12:52:02;100544.53;;;23.95;52.13
58534;BME280;44109;52.398;7.024;2022-09-09T12:54:35;100541.53;;;23.99;54.54
58534;BME280;44109;52.398;7.024;2022-09-09T12:57:04;100537.50;;;24.37;52.83
58534;BME280;44109;52.398;7.024;2022-09-09T12:59:37;100541.13;;;24.46;54.93
58534;BME280;44109;52.398;7.024;2022-09-09T13:02:16;100526.66;;;24.63;50.55
58534;BME280;44109;52.398;7.024;2022-09-09T13:04:46;100533.69;;;24.86;52.80
58534;BME280;44109;52.398;7.024;2022-09-09T13:07:16;100537.00;;;24.75;54.78
58534;BME280;44109;52.398;7.024;2022-09-09T13:09:48;100538.00;;;24.44;53.63
58534;BME280;44109;52.398;7.024;2022-09-09T13:12:18;100533.09;;;24.54;53.05
58534;BME280;44109;52.398;7.024;2022-09-09T13:14:50;100536.09;;;24.41;52.38
58534;BME280;44109;52.398;7.024;2022-09-09T13:17:22;100540.50;;;24.42;52.25
58534;BME280;44109;52.398;7.024;2022-09-09T13:19:52;100540.47;;;24.33;53.54
58534;BME280;44109;52.398;7.024;2022-09-09T13:22:29;100529.78;;;24.65;52.24
58534;BME280;44109;52.398;7.024;2022-09-09T13:25:05;100533.09;;;24.72;53.00
58534;BME280;44109;52.398;7.024;2022-09-09T13:27:53;100534.13;;;24.93;53.69
58534;BME280;44109;52.398;7.024;2022-09-09T13:30:28;100523.34;;;24.55;53.20